createdAt,value
2018-07-09T00:02:38.968Z,101266.73
2018-07-09T00:05:43.274Z,101268.53
2018-07-09T00:08:46.704Z,101275.48
2018-07-09T00:11:49.971Z,101278.20
2018-07-09T00:14:53.175Z,101277.30
2018-07-09T00:17:56.362Z,101277.78
2018-07-09T00:20:59.566Z,101284.06
2018-07-09T00:24:02.803Z,101283.72
2018-07-09T00:27:06.063Z,101285.08
2018-07-09T00:30:09.287Z,101280.35
2018-07-09T00:33:12.444Z,101280.56
2018-07-09T00:36:15.651Z,101280.18
2018-07-09T00:39:18.827Z,101285.00
2018-07-09T00:42:22.113Z,101281.42
2018-07-09T00:45:25.351Z,101283.49
2018-07-09T00:48:28.953Z,101281.48
2018-07-09T00:51:32.411Z,101279.02
2018-07-09T00:54:35.570Z,101267.89
2018-07-09T00:57:38.776Z,101279.75
2018-07-09T01:00:41.997Z,101284.70
2018-07-09T01:03:45.148Z,101283.62
2018-07-09T01:06:48.322Z,101277.16
2018-07-09T01:09:51.515Z,101276.59
2018-07-09T01:12:54.674Z,101274.93
2018-07-09T01:15:57.862Z,101269.25
2018-07-09T01:19:01.094Z,101277.66
2018-07-09T01:22:04.823Z,101269.47
2018-07-09T01:25:07.935Z,101268.64
2018-07-09T01:28:11.124Z,101272.83
2018-07-09T01:31:14.319Z,101271.00
2018-07-09T01:34:17.503Z,101272.53
2018-07-09T01:37:20.698Z,101272.48
2018-07-09T01:40:23.867Z,101265.20
2018-07-09T01:43:27.068Z,101262.41
2018-07-09T01:46:30.258Z,101262.89
2018-07-09T01:49:33.426Z,101263.09
2018-07-09T01:52:36.607Z,101259.57
2018-07-09T01:55:39.764Z,101257.81
2018-07-09T01:58:43.024Z,101254.16
2018-07-09T02:01:46.866Z,101242.31
2018-07-09T02:04:50.018Z,101252.27
2018-07-09T02:07:53.519Z,101256.66
2018-07-09T02:10:56.703Z,101259.11
2018-07-09T02:13:59.954Z,101255.39
2018-07-09T02:17:03.128Z,101242.12
2018-07-09T02:20:06.410Z,101263.34
2018-07-09T02:23:09.603Z,101260.84
2018-07-09T02:26:12.767Z,101239.72
2018-07-09T02:29:15.981Z,101256.50
2018-07-09T02:32:19.153Z,101252.32
2018-07-09T02:35:22.298Z,101261.56
2018-07-09T02:38:25.512Z,101262.47
2018-07-09T02:41:28.751Z,101242.75
2018-07-09T02:44:31.964Z,101248.58
2018-07-09T02:47:35.193Z,101259.31
2018-07-09T02:50:38.373Z,101247.92
2018-07-09T02:53:41.563Z,101239.85
2018-07-09T02:56:44.722Z,101249.32
2018-07-09T02:59:47.992Z,101248.98
2018-07-09T03:02:51.214Z,101254.24
2018-07-09T03:05:54.410Z,101255.42
2018-07-09T03:08:57.589Z,101247.02
2018-07-09T03:12:00.819Z,101260.83
2018-07-09T03:15:04.070Z,101258.48
2018-07-09T03:18:07.215Z,101259.02
2018-07-09T03:21:10.433Z,101258.95
2018-07-09T03:24:13.811Z,101259.23
2018-07-09T03:27:17.119Z,101263.05
2018-07-09T03:30:20.532Z,101267.00
2018-07-09T03:33:23.720Z,101259.88
2018-07-09T03:36:26.968Z,101268.34
2018-07-09T03:39:30.173Z,101260.98
2018-07-09T03:42:33.386Z,101259.02
2018-07-09T03:45:36.595Z,101256.58
2018-07-09T03:48:39.790Z,101263.48
2018-07-09T03:51:42.949Z,101264.20
2018-07-09T03:54:46.204Z,101263.48
2018-07-09T03:57:49.349Z,101254.77
2018-07-09T04:00:52.607Z,101259.91
2018-07-09T04:03:55.802Z,101255.77
2018-07-09T04:06:58.982Z,101267.56
2018-07-09T04:10:02.153Z,101256.28
2018-07-09T04:13:05.287Z,101253.70
2018-07-09T04:16:08.441Z,101250.30
2018-07-09T04:19:11.630Z,101243.39
2018-07-09T04:22:14.785Z,101242.88
2018-07-09T04:25:18.021Z,101250.14
2018-07-09T04:28:21.912Z,101254.13
2018-07-09T04:31:25.086Z,101253.41
2018-07-09T04:34:28.315Z,101253.19
2018-07-09T04:37:31.613Z,101253.30
2018-07-09T04:40:34.807Z,101256.52
2018-07-09T04:43:38.033Z,101257.22
2018-07-09T04:46:41.326Z,101263.25
2018-07-09T04:49:44.589Z,101257.58
2018-07-09T04:52:47.712Z,101262.97
2018-07-09T04:55:51.000Z,101254.13
2018-07-09T04:58:54.277Z,101255.52
2018-07-09T05:01:57.475Z,101253.18
2018-07-09T05:05:00.719Z,101256.59
2018-07-09T05:08:04.266Z,101247.30
2018-07-09T05:11:07.554Z,101248.12
2018-07-09T05:14:10.781Z,101240.06
2018-07-09T05:17:14.036Z,101241.71
2018-07-09T05:20:17.755Z,101242.17
2018-07-09T05:23:20.876Z,101235.56
2018-07-09T05:26:24.143Z,101245.55
2018-07-09T05:29:27.331Z,101246.25
2018-07-09T05:32:30.471Z,101243.54
2018-07-09T05:35:33.677Z,101248.48
2018-07-09T05:38:36.949Z,101243.41
2018-07-09T05:41:40.159Z,101237.02
2018-07-09T05:44:43.374Z,101240.94
2018-07-09T05:47:46.768Z,101243.97
2018-07-09T05:50:50.054Z,101241.17
2018-07-09T05:53:53.232Z,101241.40
2018-07-09T05:56:56.442Z,101242.32
2018-07-09T05:59:59.630Z,101235.25
2018-07-09T06:03:02.828Z,101229.06
2018-07-09T06:06:06.652Z,101224.91
2018-07-09T06:09:10.546Z,101216.37
2018-07-09T06:12:13.966Z,101221.32
2018-07-09T06:15:17.221Z,101222.06
2018-07-09T06:18:20.391Z,101222.77
2018-07-09T06:21:23.596Z,101217.98
2018-07-09T06:24:26.808Z,101213.07
2018-07-09T06:27:30.149Z,101215.00
2018-07-09T06:30:33.522Z,101220.03
2018-07-09T06:33:36.719Z,101212.38
2018-07-09T06:36:40.083Z,101213.48
2018-07-09T06:39:43.368Z,101212.22
2018-07-09T06:42:46.631Z,101208.34
2018-07-09T06:45:49.907Z,101210.55
2018-07-09T06:48:53.737Z,101209.69
2018-07-09T06:51:56.999Z,101222.27
2018-07-09T06:55:00.232Z,101226.11
2018-07-09T06:58:03.539Z,101215.56
2018-07-09T07:01:06.807Z,101212.81
2018-07-09T07:04:10.074Z,101219.42
2018-07-09T07:07:13.382Z,101216.57
2018-07-09T07:10:16.688Z,101207.34
2018-07-09T07:13:19.967Z,101215.10
2018-07-09T07:16:23.222Z,101212.44
2018-07-09T07:19:26.438Z,101204.23
2018-07-09T07:22:29.667Z,101215.38
2018-07-09T07:25:33.195Z,101216.65
2018-07-09T07:28:36.406Z,101213.79
2018-07-09T07:31:39.768Z,101213.52
2018-07-09T07:34:43.174Z,101214.84
2018-07-09T07:37:46.419Z,101223.48
2018-07-09T07:40:49.886Z,101214.02
2018-07-09T07:43:53.159Z,101213.66
2018-07-09T07:46:56.581Z,101221.95
2018-07-09T07:49:59.913Z,101216.69
2018-07-09T07:53:03.545Z,101219.18
2018-07-09T07:56:06.889Z,101215.43
2018-07-09T07:59:10.120Z,101208.66
2018-07-09T08:02:13.718Z,101205.09
2018-07-09T08:05:17.176Z,101214.95
2018-07-09T08:08:20.984Z,101201.31
2018-07-09T08:11:47.729Z,101205.23
2018-07-09T08:14:29.217Z,101206.42
2018-07-09T08:17:33.644Z,101197.34
2018-07-09T08:20:37.366Z,101201.38
2018-07-09T08:23:40.710Z,101200.02
2018-07-09T08:26:45.120Z,101184.65
2018-07-09T08:29:48.400Z,101193.59
2018-07-09T08:32:52.263Z,101188.98
2018-07-09T08:35:56.387Z,101183.83
2018-07-09T08:39:00.338Z,101185.34
2018-07-09T08:42:03.799Z,101178.72
2018-07-09T08:45:07.178Z,101180.39
2018-07-09T08:48:11.165Z,101177.63
2018-07-09T08:51:14.594Z,101178.77
2018-07-09T08:54:17.886Z,101172.95
2018-07-09T08:57:21.565Z,101178.16
2018-07-09T09:00:25.923Z,101168.70
2018-07-09T09:03:29.268Z,101176.13
2018-07-09T09:06:35.211Z,101167.07
2018-07-09T09:09:38.963Z,101172.72
2018-07-09T09:12:42.601Z,101168.43
2018-07-09T09:15:46.448Z,101164.98
2018-07-09T09:18:51.955Z,101159.45
2018-07-09T09:21:55.516Z,101157.75
2018-07-09T09:24:59.109Z,101157.28
2018-07-09T09:28:02.523Z,101165.68
2018-07-09T09:31:06.179Z,101167.84
2018-07-09T09:34:11.204Z,101166.26
2018-07-09T09:37:15.058Z,101166.98
2018-07-09T09:40:18.365Z,101164.48
2018-07-09T09:43:21.627Z,101164.23
2018-07-09T09:46:24.946Z,101164.65
2018-07-09T09:49:29.390Z,101152.39
2018-07-09T09:52:32.984Z,101160.64
2018-07-09T09:55:36.798Z,101149.31
2018-07-09T09:58:40.107Z,101147.45
2018-07-09T10:01:43.423Z,101149.03
2018-07-09T10:04:46.895Z,101146.87
2018-07-09T10:07:50.224Z,101153.30
2018-07-09T10:10:53.609Z,101154.66
2018-07-09T10:13:57.590Z,101160.69
2018-07-09T10:17:01.537Z,101157.41
2018-07-09T10:20:04.960Z,101149.78
2018-07-09T10:23:08.549Z,101154.59
2018-07-09T10:26:11.822Z,101156.08
2018-07-09T10:29:15.110Z,101155.47
2018-07-09T10:32:18.418Z,101148.15
2018-07-09T10:35:21.766Z,101149.88
2018-07-09T10:38:25.200Z,101146.31
2018-07-09T10:41:28.483Z,101138.31
2018-07-09T10:44:31.763Z,101139.46
2018-07-09T10:47:36.320Z,101134.47
2018-07-09T10:50:39.778Z,101132.80
2018-07-09T10:53:44.039Z,101129.52
2018-07-09T10:56:47.294Z,101143.38
2018-07-09T10:59:51.015Z,101140.94
2018-07-09T11:02:54.302Z,101142.91
2018-07-09T11:05:57.556Z,101136.73
2018-07-09T11:09:00.822Z,101137.44
2018-07-09T11:12:04.067Z,101135.34
2018-07-09T11:15:07.323Z,101137.38
2018-07-09T11:18:10.613Z,101141.61
2018-07-09T11:21:13.983Z,101141.63
2018-07-09T11:24:17.566Z,101133.18
2018-07-09T11:27:20.832Z,101135.19
2018-07-09T11:30:24.156Z,101132.78
2018-07-09T11:33:27.508Z,101129.52
2018-07-09T11:36:30.790Z,101121.08
2018-07-09T11:39:34.153Z,101109.64
2018-07-09T11:42:37.413Z,101101.84
2018-07-09T11:45:40.720Z,101105.09
2018-07-09T11:48:44.116Z,101107.25
2018-07-09T11:51:47.499Z,101093.01
2018-07-09T11:54:50.703Z,101089.24
2018-07-09T11:57:54.001Z,101090.99
2018-07-09T12:00:57.337Z,101092.03
2018-07-09T12:04:00.764Z,101091.94
2018-07-09T12:07:04.042Z,101094.74
2018-07-09T12:10:07.382Z,101094.08
2018-07-09T12:13:10.634Z,101088.32
2018-07-09T12:16:13.906Z,101090.34
2018-07-09T12:19:17.212Z,101092.88
2018-07-09T12:22:20.561Z,101085.86
2018-07-09T12:25:23.839Z,101093.02
2018-07-09T12:28:27.277Z,101085.20
2018-07-09T12:31:30.581Z,101085.89
2018-07-09T12:34:33.853Z,101078.42
2018-07-09T12:37:37.265Z,101081.50
2018-07-09T12:40:40.574Z,101084.53
2018-07-09T12:43:43.859Z,101080.30
2018-07-09T12:46:47.148Z,101074.19
2018-07-09T12:49:50.535Z,101090.80
2018-07-09T12:52:53.769Z,101085.39
2018-07-09T12:55:57.321Z,101086.59
2018-07-09T12:59:00.595Z,101081.48
2018-07-09T13:02:03.952Z,101085.23
2018-07-09T13:05:07.762Z,101078.61
2018-07-09T13:08:11.193Z,101077.24
2018-07-09T13:11:14.565Z,101083.38
2018-07-09T13:14:18.087Z,101079.80
2018-07-09T13:17:21.277Z,101085.91
2018-07-09T13:20:24.680Z,101082.70
2018-07-09T13:23:27.953Z,101081.16
2018-07-09T13:26:31.276Z,101076.14
2018-07-09T13:29:34.590Z,101078.95
2018-07-09T13:32:37.987Z,101083.52
2018-07-09T13:35:41.325Z,101084.37
2018-07-09T13:38:44.684Z,101068.91
2018-07-09T13:41:47.948Z,101076.16
2018-07-09T13:44:51.506Z,101068.73
2018-07-09T13:47:54.968Z,101071.28
2018-07-09T13:50:58.411Z,101067.72
2018-07-09T13:54:01.793Z,101066.03
2018-07-09T13:57:05.034Z,101064.83
2018-07-09T14:00:08.323Z,101062.95
2018-07-09T14:03:11.646Z,101064.59
2018-07-09T14:06:14.870Z,101055.16
2018-07-09T14:09:18.178Z,101060.98
2018-07-09T14:12:21.403Z,101052.42
2018-07-09T14:15:24.689Z,101056.98
2018-07-09T14:18:28.130Z,101048.12
2018-07-09T14:21:31.677Z,101036.89
2018-07-09T14:24:35.392Z,101037.98
2018-07-09T14:27:40.287Z,101038.44
2018-07-09T14:30:44.055Z,101042.69
2018-07-09T14:33:48.346Z,101047.92
2018-07-09T14:36:52.240Z,101046.19
2018-07-09T14:39:55.691Z,101045.39
2018-07-09T14:42:59.027Z,101031.33
2018-07-09T14:46:02.454Z,101034.15
2018-07-09T14:49:06.164Z,101032.81
2018-07-09T14:52:09.898Z,101022.89
2018-07-09T14:55:13.563Z,101023.24
2018-07-09T14:58:17.216Z,101011.91
2018-07-09T15:01:22.522Z,101009.73
2018-07-09T15:04:27.039Z,101014.47
2018-07-09T15:07:30.742Z,101007.50
2018-07-09T15:10:34.509Z,101013.64
2018-07-09T15:13:38.535Z,101010.37
2018-07-09T15:16:42.250Z,101002.63
2018-07-09T15:19:46.071Z,101003.45
2018-07-09T15:22:49.390Z,100994.59
2018-07-09T15:25:52.674Z,100992.03
2018-07-09T15:28:55.965Z,100988.27
2018-07-09T15:32:10.767Z,100983.31
2018-07-09T15:35:14.029Z,100983.13
2018-07-09T15:38:17.942Z,100967.30
2018-07-09T15:41:21.835Z,100968.67
2018-07-09T15:44:25.206Z,100962.75
2018-07-09T15:47:28.627Z,100961.39
2018-07-09T15:50:31.948Z,100950.88
2018-07-09T15:53:35.354Z,100953.30
2018-07-09T15:56:38.757Z,100949.69
2018-07-09T15:59:42.272Z,100940.03
2018-07-09T16:02:45.693Z,100941.20
2018-07-09T16:05:49.000Z,100936.47
2018-07-09T16:08:52.745Z,100935.95
2018-07-09T16:11:56.039Z,100927.78
2018-07-09T16:14:59.459Z,100929.19
2018-07-09T16:18:03.331Z,100924.08
2018-07-09T16:21:08.142Z,100920.67
2018-07-09T16:24:11.685Z,100917.42
2018-07-09T16:27:15.025Z,100915.93
2018-07-09T16:30:18.553Z,100916.79
2018-07-09T16:33:22.260Z,100907.91
2018-07-09T16:36:26.317Z,100908.09
2018-07-09T16:39:30.081Z,100909.98
2018-07-09T16:42:33.488Z,100908.09
2018-07-09T16:45:37.211Z,100905.55
2018-07-09T16:48:40.955Z,100900.14
2018-07-09T16:51:44.525Z,100899.25
2018-07-09T16:54:48.298Z,100896.89
2018-07-09T16:57:52.941Z,100889.57
2018-07-09T17:00:56.731Z,100882.96
2018-07-09T17:04:00.334Z,100882.63
2018-07-09T17:07:03.973Z,100881.91
2018-07-09T17:10:09.160Z,100884.30
2018-07-09T17:13:13.260Z,100874.42
2018-07-09T17:16:17.736Z,100871.75
2018-07-09T17:19:21.956Z,100865.28
2018-07-09T17:22:25.794Z,100870.53
2018-07-09T17:25:29.662Z,100866.81
2018-07-09T17:28:33.194Z,100865.09
2018-07-09T17:31:37.793Z,100863.73
2018-07-09T17:34:41.625Z,100863.23
2018-07-09T17:37:46.686Z,100862.70
2018-07-09T17:40:52.447Z,100868.34
2018-07-09T17:43:56.499Z,100864.94
2018-07-09T17:47:01.720Z,100856.45
2018-07-09T17:50:05.849Z,100859.17
2018-07-09T17:53:09.833Z,100858.52
2018-07-09T17:56:14.312Z,100849.99
2018-07-09T17:59:21.226Z,100855.62
2018-07-09T18:02:26.876Z,100867.36
2018-07-09T18:05:31.705Z,100862.25
2018-07-09T18:08:54.936Z,100865.44
2018-07-09T18:12:01.581Z,100878.89
2018-07-09T18:15:06.357Z,100873.73
2018-07-09T18:18:12.349Z,100881.20
2018-07-09T18:21:16.315Z,100884.37
2018-07-09T18:24:20.824Z,100894.91
2018-07-09T18:27:26.069Z,100895.33
2018-07-09T18:30:30.351Z,100898.55
2018-07-09T18:33:35.515Z,100900.55
2018-07-09T18:36:40.062Z,100903.00
2018-07-09T18:39:44.814Z,100912.69
2018-07-09T18:42:49.099Z,100920.81
2018-07-09T18:45:53.032Z,100920.92
2018-07-09T18:48:57.050Z,100925.25
2018-07-09T18:52:00.868Z,100928.72
2018-07-09T18:55:05.568Z,100927.89
2018-07-09T18:58:10.493Z,100930.59
2018-07-09T19:01:15.237Z,100934.36
2018-07-09T19:04:19.061Z,100929.65
2018-07-09T19:07:23.788Z,100932.09
2018-07-09T19:10:27.550Z,100935.59
2018-07-09T19:13:32.367Z,100939.45
2018-07-09T19:16:46.394Z,100942.45
2018-07-09T19:19:55.748Z,100940.78
2018-07-09T19:22:58.591Z,100950.45
2018-07-09T19:26:01.042Z,100949.04
2018-07-09T19:29:03.603Z,100952.55
2018-07-09T19:32:06.423Z,100953.80
2018-07-09T19:35:08.752Z,100961.42
2018-07-09T19:38:11.239Z,100959.31
2018-07-09T19:41:13.924Z,100966.38
2018-07-09T19:44:16.636Z,100973.09
2018-07-09T19:47:19.089Z,100976.05
2018-07-09T19:50:21.550Z,100969.92
2018-07-09T19:53:23.870Z,100973.30
2018-07-09T19:56:26.627Z,100971.80
2018-07-09T19:59:29.089Z,100975.25
2018-07-09T20:02:32.135Z,100978.95
2018-07-09T20:05:34.515Z,100977.30
2018-07-09T20:08:42.229Z,100980.66
2018-07-09T20:11:50.064Z,100978.98
2018-07-09T20:14:57.843Z,100980.51
2018-07-09T20:18:00.245Z,100971.70
2018-07-09T20:21:02.613Z,100974.69
2018-07-09T20:24:04.906Z,100971.02
2018-07-09T20:27:07.367Z,100975.77
2018-07-09T20:30:09.794Z,100974.98
2018-07-09T20:33:12.246Z,100983.81
2018-07-09T20:36:15.794Z,100974.92
2018-07-09T20:39:18.143Z,100982.78
2018-07-09T20:42:20.450Z,100987.56
2018-07-09T20:45:22.733Z,100984.67
2018-07-09T20:48:25.181Z,100991.77
2018-07-09T20:51:27.554Z,100993.17
2018-07-09T20:54:29.937Z,100980.80
2018-07-09T20:57:32.265Z,100994.00
2018-07-09T21:00:34.509Z,100991.91
2018-07-09T21:03:36.839Z,100993.56
2018-07-09T21:06:39.108Z,100994.17
2018-07-09T21:09:41.317Z,100992.13
2018-07-09T21:13:00.710Z,100996.25
2018-07-09T21:16:03.243Z,101004.95
2018-07-09T21:19:09.858Z,101003.48
2018-07-09T21:22:12.654Z,101002.27
2018-07-09T21:25:19.199Z,101013.18
2018-07-09T21:28:26.115Z,101010.54
2018-07-09T21:31:28.737Z,101008.75
2018-07-09T21:34:31.152Z,101017.67
2018-07-09T21:37:33.499Z,101012.65
2018-07-09T21:40:35.696Z,101009.67
2018-07-09T21:43:38.030Z,101007.90
2018-07-09T21:46:40.284Z,101005.61
2018-07-09T21:49:42.505Z,101010.27
2018-07-09T21:52:44.796Z,101006.19
2018-07-09T21:55:47.057Z,101012.28
2018-07-09T21:58:49.341Z,101005.09
2018-07-09T22:01:52.119Z,101004.97
2018-07-09T22:04:54.416Z,101007.11
2018-07-09T22:07:56.951Z,101010.45
2018-07-09T22:10:59.248Z,101007.86
2018-07-09T22:14:01.538Z,101007.33
2018-07-09T22:17:03.737Z,101012.02
2018-07-09T22:20:05.954Z,101017.22
2018-07-09T22:23:08.143Z,101018.73
2018-07-09T22:26:10.530Z,101017.06
2018-07-09T22:29:12.765Z,101009.02
2018-07-09T22:32:16.057Z,101004.62
2018-07-09T22:35:20.503Z,101004.42
2018-07-09T22:38:23.946Z,100999.56
2018-07-09T22:41:27.354Z,101000.60
2018-07-09T22:44:30.795Z,101009.42
2018-07-09T22:47:34.236Z,101012.15
2018-07-09T22:50:37.501Z,101015.87
2018-07-09T22:53:40.833Z,101017.80
2018-07-09T22:56:44.131Z,101014.84
2018-07-09T22:59:47.368Z,101012.08
2018-07-09T23:03:03.961Z,101004.06
2018-07-09T23:06:07.139Z,101007.33
2018-07-09T23:10:24.267Z,101005.40
2018-07-09T23:16:56.316Z,100996.56
2018-07-09T23:20:36.442Z,101001.47
2018-07-09T23:23:38.643Z,100996.79
2018-07-09T23:26:41.453Z,100996.81
2018-07-09T23:29:43.693Z,100995.65
2018-07-09T23:32:45.866Z,100996.58
2018-07-09T23:35:48.075Z,100994.85
2018-07-09T23:38:50.450Z,100995.52
2018-07-09T23:41:52.637Z,100998.82
2018-07-09T23:44:54.813Z,100996.53
2018-07-09T23:47:56.964Z,100992.55
2018-07-09T23:50:59.168Z,100994.88
2018-07-09T23:54:01.336Z,100994.88
2018-07-09T23:57:18.511Z,100989.66
